createdAt,value
2022-08-29T00:01:05.334Z,11.60
2022-08-29T00:03:32.536Z,11.40
2022-08-29T00:05:59.393Z,11.30
2022-08-29T00:08:26.385Z,11.20
2022-08-29T00:10:53.382Z,11.10
2022-08-29T00:13:21.121Z,11.00
2022-08-29T00:15:48.314Z,10.90
2022-08-29T00:18:17.202Z,11.00
2022-08-29T00:20:45.336Z,10.90
2022-08-29T00:23:12.376Z,10.90
2022-08-29T00:25:39.472Z,10.80
2022-08-29T00:28:06.724Z,10.90
2022-08-29T00:30:35.242Z,10.90
2022-08-29T00:33:02.474Z,10.90
2022-08-29T00:35:32.850Z,11.00
2022-08-29T00:38:00.416Z,11.00
2022-08-29T00:40:34.853Z,11.10
2022-08-29T00:43:02.227Z,11.00
2022-08-29T00:45:30.123Z,11.00
2022-08-29T00:48:08.544Z,11.00
2022-08-29T00:50:42.271Z,11.10
2022-08-29T00:53:13.134Z,11.10
2022-08-29T00:55:41.192Z,11.10
2022-08-29T00:58:30.041Z,11.20
2022-08-29T01:00:57.266Z,11.20
2022-08-29T01:03:25.439Z,11.10
2022-08-29T01:05:52.677Z,11.10
2022-08-29T01:08:19.647Z,11.20
2022-08-29T01:11:04.956Z,11.00
2022-08-29T01:13:36.258Z,11.10
2022-08-29T01:16:05.070Z,11.10
2022-08-29T01:18:34.217Z,11.00
2022-08-29T01:21:36.058Z,10.90
2022-08-29T01:24:21.432Z,10.90
2022-08-29T01:26:48.427Z,10.90
2022-08-29T01:29:16.028Z,11.00
2022-08-29T01:31:56.973Z,11.00
2022-08-29T01:34:28.321Z,10.90
2022-08-29T01:37:00.981Z,10.90
2022-08-29T01:39:31.746Z,10.80
2022-08-29T01:42:03.939Z,10.80
2022-08-29T01:44:30.903Z,10.80
2022-08-29T01:47:02.682Z,10.80
2022-08-29T01:49:33.012Z,10.70
2022-08-29T01:52:00.012Z,10.80
2022-08-29T01:54:26.932Z,10.70
2022-08-29T01:56:54.360Z,10.70
2022-08-29T01:59:26.869Z,10.60
2022-08-29T02:02:19.893Z,10.50
2022-08-29T02:04:48.365Z,10.50
2022-08-29T02:07:20.456Z,10.50
2022-08-29T02:09:48.067Z,10.50
2022-08-29T02:12:16.373Z,10.50
2022-08-29T02:14:44.245Z,10.50
2022-08-29T02:17:11.300Z,10.40
2022-08-29T02:19:39.167Z,10.50
2022-08-29T02:22:06.763Z,10.40
2022-08-29T02:24:33.842Z,10.50
2022-08-29T02:27:00.894Z,10.50
2022-08-29T02:29:37.126Z,10.50
2022-08-29T02:32:12.115Z,10.40
2022-08-29T02:34:43.282Z,10.40
2022-08-29T02:37:12.813Z,10.30
2022-08-29T02:39:39.727Z,10.20
2022-08-29T02:42:06.862Z,10.20
2022-08-29T02:44:34.239Z,10.20
2022-08-29T02:47:01.114Z,10.10
2022-08-29T02:49:28.071Z,10.00
2022-08-29T02:51:54.950Z,10.00
2022-08-29T02:54:22.230Z,10.00
2022-08-29T02:56:49.498Z,10.10
2022-08-29T02:59:16.314Z,10.10
2022-08-29T03:01:43.173Z,10.10
2022-08-29T03:04:10.105Z,10.10
2022-08-29T03:06:37.091Z,10.10
2022-08-29T03:09:04.481Z,10.10
2022-08-29T03:11:31.368Z,10.10
2022-08-29T03:13:58.228Z,10.20
2022-08-29T03:16:26.369Z,10.20
2022-08-29T03:18:53.912Z,10.20
2022-08-29T03:21:23.608Z,10.30
2022-08-29T03:23:50.856Z,10.30
2022-08-29T03:26:18.515Z,10.30
2022-08-29T03:28:45.587Z,10.30
2022-08-29T03:31:12.547Z,10.30
2022-08-29T03:33:39.409Z,10.30
2022-08-29T03:36:13.658Z,10.30
2022-08-29T03:38:40.960Z,10.30
2022-08-29T03:41:08.050Z,10.20
2022-08-29T03:43:34.940Z,10.20
2022-08-29T03:46:01.994Z,10.20
2022-08-29T03:48:28.935Z,10.20
2022-08-29T03:50:56.643Z,10.20
2022-08-29T03:53:24.125Z,10.10
2022-08-29T03:55:51.078Z,10.20
2022-08-29T03:58:18.001Z,10.20
2022-08-29T04:00:46.823Z,10.30
2022-08-29T04:03:13.850Z,10.30
2022-08-29T04:05:40.883Z,10.40
2022-08-29T04:08:08.667Z,10.50
2022-08-29T04:10:38.244Z,10.60
2022-08-29T04:13:07.021Z,10.70
2022-08-29T04:15:34.529Z,10.70
2022-08-29T04:18:04.519Z,10.80
2022-08-29T04:20:38.133Z,10.80
2022-08-29T04:23:06.196Z,10.90
2022-08-29T04:25:37.549Z,10.90
2022-08-29T04:28:06.850Z,11.00
2022-08-29T04:30:34.943Z,11.00
2022-08-29T04:33:01.874Z,11.10
2022-08-29T04:35:29.910Z,11.10
2022-08-29T04:37:56.933Z,11.10
2022-08-29T04:40:24.046Z,11.20
2022-08-29T04:42:51.612Z,11.20
2022-08-29T04:45:21.766Z,11.20
2022-08-29T04:47:48.965Z,11.30
2022-08-29T04:50:18.511Z,11.30
2022-08-29T04:52:46.011Z,11.30
2022-08-29T04:55:16.149Z,11.30
2022-08-29T04:57:45.395Z,11.40
2022-08-29T05:00:19.955Z,11.40
2022-08-29T05:02:47.637Z,11.50
2022-08-29T05:05:15.842Z,11.60
2022-08-29T05:07:43.010Z,11.70
2022-08-29T05:10:13.783Z,11.70
2022-08-29T05:12:40.774Z,11.70
2022-08-29T05:15:08.433Z,11.70
2022-08-29T05:17:35.455Z,11.80
2022-08-29T05:20:06.634Z,11.80
2022-08-29T05:22:33.981Z,11.90
2022-08-29T05:25:01.899Z,12.00
2022-08-29T05:27:29.350Z,12.00
2022-08-29T05:29:56.236Z,12.10
2022-08-29T05:32:23.069Z,12.10
2022-08-29T05:34:50.216Z,12.20
2022-08-29T05:37:20.022Z,12.30
2022-08-29T05:39:47.817Z,12.40
2022-08-29T05:42:17.078Z,12.50
2022-08-29T05:44:44.444Z,12.50
2022-08-29T05:47:13.719Z,12.50
2022-08-29T05:49:42.685Z,12.60
2022-08-29T05:52:10.742Z,12.50
2022-08-29T05:54:39.436Z,12.60
2022-08-29T05:57:08.255Z,12.60
2022-08-29T05:59:36.394Z,12.70
2022-08-29T06:02:05.321Z,12.70
2022-08-29T06:04:32.215Z,12.70
2022-08-29T06:06:59.541Z,12.80
2022-08-29T06:09:26.424Z,12.80
2022-08-29T06:11:53.337Z,12.90
2022-08-29T06:14:20.837Z,12.90
2022-08-29T06:16:47.876Z,13.00
2022-08-29T06:19:15.121Z,13.00
2022-08-29T06:21:42.568Z,13.00
2022-08-29T06:24:09.866Z,13.00
2022-08-29T06:26:36.778Z,13.00
2022-08-29T06:29:06.717Z,13.10
2022-08-29T06:31:34.393Z,13.20
2022-08-29T06:34:07.477Z,13.20
2022-08-29T06:36:36.962Z,13.30
2022-08-29T06:39:07.149Z,13.40
2022-08-29T06:41:34.814Z,13.40
2022-08-29T06:44:02.472Z,13.50
2022-08-29T06:46:36.695Z,13.80
2022-08-29T06:49:06.133Z,14.00
2022-08-29T06:51:35.993Z,14.10
2022-08-29T06:54:06.131Z,14.30
2022-08-29T06:56:37.044Z,14.40
2022-08-29T06:59:05.883Z,14.50
2022-08-29T07:01:33.451Z,14.50
2022-08-29T07:04:01.681Z,14.50
2022-08-29T07:06:28.780Z,14.50
2022-08-29T07:08:56.797Z,14.60
2022-08-29T07:11:26.592Z,14.70
2022-08-29T07:13:55.634Z,14.70
2022-08-29T07:16:22.917Z,14.90
2022-08-29T07:18:50.172Z,15.00
2022-08-29T07:21:21.036Z,15.10
2022-08-29T07:23:49.616Z,15.30
2022-08-29T07:26:29.554Z,15.40
2022-08-29T07:29:00.330Z,15.50
2022-08-29T07:31:31.241Z,15.50
2022-08-29T07:34:02.053Z,15.60
2022-08-29T07:36:31.328Z,15.80
2022-08-29T07:38:58.651Z,15.90
2022-08-29T07:41:25.921Z,16.00
2022-08-29T07:43:53.026Z,16.10
2022-08-29T07:46:21.007Z,16.30
2022-08-29T07:48:48.513Z,16.50
2022-08-29T07:51:21.562Z,16.50
2022-08-29T07:53:49.487Z,16.70
2022-08-29T07:56:19.452Z,16.80
2022-08-29T07:58:46.927Z,16.80
2022-08-29T08:01:14.927Z,16.70
2022-08-29T08:03:50.108Z,16.80
2022-08-29T08:06:22.046Z,16.90
2022-08-29T08:08:49.805Z,17.10
2022-08-29T08:11:17.852Z,17.20
2022-08-29T08:13:45.218Z,17.20
2022-08-29T08:16:20.444Z,17.40
2022-08-29T08:18:48.888Z,17.40
2022-08-29T08:21:16.159Z,17.20
2022-08-29T08:23:43.386Z,17.20
2022-08-29T08:26:12.244Z,17.20
2022-08-29T08:28:40.617Z,17.20
2022-08-29T08:31:08.909Z,17.20
2022-08-29T08:33:41.124Z,17.40
2022-08-29T08:36:15.443Z,17.50
2022-08-29T08:38:42.456Z,17.50
2022-08-29T08:41:26.415Z,17.40
2022-08-29T08:43:58.373Z,17.60
2022-08-29T08:46:47.580Z,17.80
2022-08-29T08:49:20.709Z,17.80
2022-08-29T08:51:57.308Z,17.90
2022-08-29T08:54:27.702Z,18.10
2022-08-29T08:57:02.509Z,18.40
2022-08-29T08:59:43.478Z,18.50
2022-08-29T09:02:31.497Z,18.70
2022-08-29T09:05:03.303Z,18.80
2022-08-29T09:07:54.788Z,18.80
2022-08-29T09:10:43.083Z,19.00
2022-08-29T09:13:12.677Z,19.00
2022-08-29T09:15:43.997Z,19.20
2022-08-29T09:18:23.932Z,19.20
2022-08-29T09:20:51.438Z,19.40
2022-08-29T09:23:36.776Z,19.40
2022-08-29T09:26:03.752Z,19.40
2022-08-29T09:28:31.331Z,19.40
2022-08-29T09:31:14.805Z,19.50
2022-08-29T09:33:44.548Z,19.60
2022-08-29T09:36:33.998Z,19.80
2022-08-29T09:39:33.822Z,20.00
2022-08-29T09:42:19.262Z,20.00
2022-08-29T09:45:02.384Z,20.30
2022-08-29T09:47:32.497Z,20.50
2022-08-29T09:50:31.924Z,20.70
2022-08-29T09:53:13.153Z,20.80
2022-08-29T09:55:53.204Z,20.50
2022-08-29T09:58:20.144Z,20.30
2022-08-29T10:01:12.376Z,20.30
2022-08-29T10:03:45.010Z,20.30
2022-08-29T10:06:16.656Z,20.70
2022-08-29T10:08:58.922Z,21.10
2022-08-29T10:11:37.571Z,21.50
2022-08-29T10:14:12.986Z,21.90
2022-08-29T10:16:48.531Z,22.30
2022-08-29T10:19:34.208Z,22.20
2022-08-29T10:25:04.813Z,21.90
2022-08-29T10:27:34.493Z,22.00
2022-08-29T10:30:15.711Z,22.00
2022-08-29T10:32:51.508Z,22.10
2022-08-29T10:35:32.912Z,22.50
2022-08-29T10:38:24.498Z,22.70
2022-08-29T10:41:01.869Z,22.80
2022-08-29T10:43:44.961Z,22.80
2022-08-29T10:46:40.068Z,22.60
2022-08-29T10:49:49.761Z,22.60
2022-08-29T10:52:30.679Z,22.10
2022-08-29T10:55:28.631Z,22.10
2022-08-29T10:57:55.455Z,22.10
2022-08-29T11:00:26.802Z,22.10
2022-08-29T11:03:13.088Z,22.10
2022-08-29T11:05:45.957Z,22.20
2022-08-29T11:08:30.411Z,22.20
2022-08-29T11:10:57.473Z,22.30
2022-08-29T11:14:06.170Z,22.40
2022-08-29T11:16:44.082Z,22.60
2022-08-29T11:19:25.311Z,22.60
2022-08-29T11:22:14.124Z,22.60
2022-08-29T11:24:47.086Z,22.60
2022-08-29T11:27:34.624Z,22.70
2022-08-29T11:30:04.377Z,22.70
2022-08-29T11:33:04.814Z,22.60
2022-08-29T11:35:44.934Z,22.30
2022-08-29T11:38:30.049Z,22.10
2022-08-29T11:41:30.661Z,22.10
2022-08-29T11:44:14.171Z,22.20
2022-08-29T11:46:48.996Z,22.30
2022-08-29T11:49:38.486Z,22.40
2022-08-29T11:52:11.232Z,22.50
2022-08-29T11:54:39.232Z,22.40
2022-08-29T11:57:06.266Z,22.20
2022-08-29T11:59:51.010Z,22.40
2022-08-29T12:02:32.785Z,22.30
2022-08-29T12:04:59.573Z,22.10
2022-08-29T12:07:37.942Z,22.10
2022-08-29T12:10:13.515Z,22.30
2022-08-29T12:12:46.290Z,22.60
2022-08-29T12:15:34.486Z,23.00
2022-08-29T12:18:21.269Z,23.10
2022-08-29T12:20:56.973Z,23.30
2022-08-29T12:23:31.504Z,23.50
2022-08-29T12:26:44.787Z,23.70
2022-08-29T12:29:33.324Z,24.10
2022-08-29T12:32:22.813Z,24.30
2022-08-29T12:35:07.706Z,24.30
2022-08-29T12:37:57.862Z,24.60
2022-08-29T12:40:46.218Z,24.60
2022-08-29T12:43:22.596Z,24.80
2022-08-29T12:45:51.073Z,24.50
2022-08-29T12:48:24.223Z,24.40
2022-08-29T12:50:51.748Z,24.70
2022-08-29T12:53:29.818Z,25.00
2022-08-29T12:56:00.009Z,25.40
2022-08-29T12:58:33.423Z,25.60
2022-08-29T13:01:01.155Z,25.70
2022-08-29T13:03:28.083Z,25.40
2022-08-29T13:06:08.362Z,25.30
2022-08-29T13:08:41.194Z,25.10
2022-08-29T13:11:12.855Z,25.10
2022-08-29T13:13:40.144Z,25.10
2022-08-29T13:16:22.301Z,24.80
2022-08-29T13:19:09.719Z,24.80
2022-08-29T13:21:36.214Z,24.90
2022-08-29T13:24:12.576Z,24.90
2022-08-29T13:27:01.141Z,24.80
2022-08-29T13:29:42.754Z,24.70
2022-08-29T13:32:23.641Z,24.60
2022-08-29T13:35:13.709Z,24.40
2022-08-29T13:37:44.881Z,24.10
2022-08-29T13:40:36.654Z,24.00
2022-08-29T13:43:05.331Z,24.10
2022-08-29T13:45:33.165Z,24.10
2022-08-29T13:48:12.513Z,24.10
2022-08-29T13:50:40.205Z,24.20
2022-08-29T13:53:07.132Z,24.30
2022-08-29T13:55:34.702Z,24.30
2022-08-29T13:58:01.844Z,24.30
2022-08-29T14:00:35.180Z,24.20
2022-08-29T14:03:03.756Z,24.10
2022-08-29T14:05:31.448Z,24.20
2022-08-29T14:07:58.463Z,24.20
2022-08-29T14:10:25.454Z,24.10
2022-08-29T14:12:52.279Z,24.10
2022-08-29T14:15:19.629Z,24.20
2022-08-29T14:17:47.800Z,24.20
2022-08-29T14:20:17.531Z,24.00
2022-08-29T14:22:45.612Z,24.00
2022-08-29T14:25:15.055Z,24.10
2022-08-29T14:27:41.966Z,24.20
2022-08-29T14:30:10.502Z,24.00
2022-08-29T14:32:37.620Z,24.10
2022-08-29T14:35:05.880Z,24.20
2022-08-29T14:37:33.718Z,24.30
2022-08-29T14:40:00.689Z,24.40
2022-08-29T14:42:27.589Z,24.40
2022-08-29T14:44:54.604Z,24.50
2022-08-29T14:47:21.444Z,24.50
2022-08-29T14:49:48.326Z,24.40
2022-08-29T14:52:15.291Z,24.40
2022-08-29T14:54:43.106Z,24.40
2022-08-29T14:57:10.774Z,24.30
2022-08-29T14:59:40.519Z,24.30
2022-08-29T15:02:09.896Z,24.20
2022-08-29T15:04:37.913Z,24.30
2022-08-29T15:07:10.943Z,24.20
2022-08-29T15:09:38.996Z,24.20
2022-08-29T15:12:06.362Z,24.30
2022-08-29T15:14:34.621Z,24.20
2022-08-29T15:17:02.343Z,24.10
2022-08-29T15:22:16.590Z,24.10
2022-08-29T15:24:43.879Z,24.00
2022-08-29T15:27:11.830Z,24.10
2022-08-29T15:29:42.462Z,24.10
2022-08-29T15:32:11.626Z,24.00
2022-08-29T15:34:40.102Z,23.90
2022-08-29T15:37:09.255Z,24.00
2022-08-29T15:39:36.736Z,24.00
2022-08-29T15:42:08.455Z,24.00
2022-08-29T15:44:35.578Z,24.10
2022-08-29T15:47:02.804Z,24.20
2022-08-29T15:49:30.375Z,24.50
2022-08-29T15:51:57.952Z,24.80
2022-08-29T15:54:26.190Z,25.30
2022-08-29T15:56:53.534Z,25.50
2022-08-29T15:59:35.858Z,25.50
2022-08-29T16:02:10.544Z,25.30
2022-08-29T16:04:38.658Z,25.00
2022-08-29T16:07:05.901Z,24.80
2022-08-29T16:09:32.770Z,24.50
2022-08-29T16:11:59.652Z,24.40
2022-08-29T16:17:14.170Z,24.10
2022-08-29T16:19:41.866Z,23.90
2022-08-29T16:22:09.291Z,23.70
2022-08-29T16:24:36.739Z,23.70
2022-08-29T16:27:04.467Z,23.60
2022-08-29T16:29:31.495Z,23.70
2022-08-29T16:31:58.760Z,23.50
2022-08-29T16:34:29.108Z,23.50
2022-08-29T16:37:01.345Z,23.50
2022-08-29T16:39:29.111Z,23.30
2022-08-29T16:41:56.265Z,23.40
2022-08-29T16:44:23.909Z,23.40
2022-08-29T16:46:50.965Z,23.30
2022-08-29T16:49:17.916Z,23.20
2022-08-29T16:51:45.065Z,23.10
2022-08-29T16:54:12.372Z,23.00
2022-08-29T16:56:39.740Z,23.00
2022-08-29T16:59:06.871Z,23.00
2022-08-29T17:01:40.013Z,22.90
2022-08-29T17:04:10.586Z,22.80
2022-08-29T17:06:39.653Z,22.70
2022-08-29T17:09:08.991Z,22.70
2022-08-29T17:11:39.355Z,22.70
2022-08-29T17:14:07.300Z,22.70
2022-08-29T17:16:35.208Z,22.60
2022-08-29T17:19:02.639Z,22.60
2022-08-29T17:21:29.521Z,22.60
2022-08-29T17:23:56.446Z,22.60
2022-08-29T17:26:23.743Z,22.50
2022-08-29T17:28:51.395Z,22.50
2022-08-29T17:31:19.023Z,22.50
2022-08-29T17:33:46.454Z,22.40
2022-08-29T17:36:14.336Z,22.30
2022-08-29T17:38:45.055Z,22.20
2022-08-29T17:41:17.150Z,22.20
2022-08-29T17:43:45.290Z,22.10
2022-08-29T17:46:12.306Z,22.00
2022-08-29T17:48:39.723Z,21.90
2022-08-29T17:51:07.117Z,21.80
2022-08-29T17:53:34.816Z,21.60
2022-08-29T17:56:21.100Z,21.40
2022-08-29T17:58:49.432Z,21.40
2022-08-29T18:01:17.153Z,21.30
2022-08-29T18:03:45.461Z,21.20
2022-08-29T18:06:15.032Z,21.10
2022-08-29T18:08:47.773Z,21.00
2022-08-29T18:11:16.556Z,20.90
2022-08-29T18:13:43.703Z,20.70
2022-08-29T18:16:11.682Z,20.60
2022-08-29T18:18:39.388Z,20.50
2022-08-29T18:21:06.491Z,20.40
2022-08-29T18:23:33.608Z,20.30
2022-08-29T18:26:01.916Z,20.20
2022-08-29T18:28:29.074Z,20.20
2022-08-29T18:30:56.751Z,20.10
2022-08-29T18:33:28.519Z,19.90
2022-08-29T18:36:02.489Z,19.80
2022-08-29T18:38:29.498Z,19.70
2022-08-29T18:40:56.484Z,19.60
2022-08-29T18:43:23.494Z,19.50
2022-08-29T18:45:50.538Z,19.50
2022-08-29T18:48:17.811Z,19.30
2022-08-29T18:50:45.160Z,19.20
2022-08-29T18:53:15.114Z,19.30
2022-08-29T18:55:50.405Z,19.20
2022-08-29T18:58:23.654Z,19.20
2022-08-29T19:00:51.104Z,19.20
2022-08-29T19:03:18.181Z,19.10
2022-08-29T19:05:48.445Z,19.00
2022-08-29T19:08:22.610Z,18.90
2022-08-29T19:10:49.504Z,18.80
2022-08-29T19:13:20.841Z,18.80
2022-08-29T19:15:48.592Z,18.80
2022-08-29T19:18:15.984Z,18.80
2022-08-29T19:21:02.042Z,18.70
2022-08-29T19:23:30.548Z,18.60
2022-08-29T19:25:57.634Z,18.60
2022-08-29T19:28:24.696Z,18.50
2022-08-29T19:30:52.318Z,18.50
2022-08-29T19:33:20.237Z,18.40
2022-08-29T19:35:49.545Z,18.40
2022-08-29T19:38:17.171Z,18.30
2022-08-29T19:40:44.311Z,18.30
2022-08-29T19:43:13.606Z,18.20
2022-08-29T19:45:42.673Z,18.20
2022-08-29T19:48:14.784Z,18.20
2022-08-29T19:50:47.713Z,18.10
2022-08-29T19:53:19.984Z,18.00
2022-08-29T19:55:53.050Z,18.00
2022-08-29T19:58:19.998Z,17.90
2022-08-29T20:00:47.131Z,17.90
2022-08-29T20:03:15.067Z,17.90
2022-08-29T20:05:41.974Z,17.90
2022-08-29T20:08:10.261Z,17.80
2022-08-29T20:10:37.415Z,17.70
2022-08-29T20:13:04.509Z,17.60
2022-08-29T20:15:31.391Z,17.50
2022-08-29T20:18:00.366Z,17.50
2022-08-29T20:20:31.270Z,17.50
2022-08-29T20:22:58.287Z,17.40
2022-08-29T20:25:25.279Z,17.40
2022-08-29T20:27:53.124Z,17.30
2022-08-29T20:30:27.822Z,17.30
2022-08-29T20:32:55.028Z,17.30
2022-08-29T20:36:38.614Z,17.20
2022-08-29T20:39:07.059Z,17.20
2022-08-29T20:41:34.168Z,17.00
2022-08-29T20:44:06.891Z,17.00
2022-08-29T20:46:39.505Z,16.90
2022-08-29T20:49:07.776Z,16.90
2022-08-29T20:51:36.451Z,16.90
2022-08-29T20:54:03.615Z,16.80
2022-08-29T20:56:31.092Z,16.80
2022-08-29T20:58:57.994Z,16.80
2022-08-29T21:01:25.087Z,16.70
2022-08-29T21:04:10.527Z,16.70
2022-08-29T21:06:37.555Z,16.70
2022-08-29T21:09:05.909Z,16.70
2022-08-29T21:11:32.828Z,16.70
2022-08-29T21:14:00.501Z,16.70
2022-08-29T21:16:28.587Z,16.70
2022-08-29T21:18:55.675Z,16.60
2022-08-29T21:21:24.952Z,16.60
2022-08-29T21:23:53.294Z,16.60
2022-08-29T21:26:20.252Z,16.60
2022-08-29T21:28:47.346Z,16.50
2022-08-29T21:31:15.475Z,16.50
2022-08-29T21:33:44.866Z,16.50
2022-08-29T21:36:20.256Z,16.40
2022-08-29T21:38:48.871Z,16.50
2022-08-29T21:41:15.745Z,16.50
2022-08-29T21:43:43.012Z,16.50
2022-08-29T21:46:18.285Z,16.50
2022-08-29T21:48:45.861Z,16.60
2022-08-29T21:51:13.855Z,16.60
2022-08-29T21:53:41.638Z,16.60
2022-08-29T21:56:09.068Z,16.70
2022-08-29T21:58:35.914Z,16.70
2022-08-29T22:01:03.093Z,16.70
2022-08-29T22:03:30.010Z,16.80
2022-08-29T22:05:56.996Z,16.80
2022-08-29T22:08:23.813Z,16.80
2022-08-29T22:10:52.114Z,16.70
2022-08-29T22:13:18.970Z,16.70
2022-08-29T22:16:04.384Z,16.70
2022-08-29T22:18:31.386Z,16.70
2022-08-29T22:21:00.404Z,16.70
2022-08-29T22:23:27.311Z,16.70
2022-08-29T22:25:54.168Z,16.70
2022-08-29T22:28:21.276Z,16.70
2022-08-29T22:30:48.797Z,16.80
2022-08-29T22:33:16.327Z,16.80
2022-08-29T22:35:43.898Z,16.70
2022-08-29T22:38:10.951Z,16.80
2022-08-29T22:40:38.270Z,16.80
2022-08-29T22:43:05.192Z,16.80
2022-08-29T22:45:32.461Z,16.80
2022-08-29T22:47:59.261Z,16.70
2022-08-29T22:50:26.928Z,16.70
2022-08-29T22:52:58.280Z,16.60
2022-08-29T22:57:51.687Z,16.60
2022-08-29T23:00:22.303Z,16.50
2022-08-29T23:02:50.343Z,16.50
2022-08-29T23:05:18.518Z,16.40
2022-08-29T23:07:46.002Z,16.40
2022-08-29T23:10:14.283Z,16.40
2022-08-29T23:12:41.683Z,16.40
2022-08-29T23:15:12.061Z,16.30
2022-08-29T23:17:39.121Z,16.30
2022-08-29T23:20:09.430Z,16.30
2022-08-29T23:22:40.993Z,16.30
2022-08-29T23:25:11.857Z,16.30
2022-08-29T23:27:39.067Z,16.20
2022-08-29T23:30:09.391Z,16.20
2022-08-29T23:32:36.268Z,16.10
2022-08-29T23:35:04.571Z,16.10
2022-08-29T23:37:31.461Z,16.10
2022-08-29T23:39:58.416Z,16.00
2022-08-29T23:42:25.424Z,15.90
2022-08-29T23:44:52.369Z,16.00
2022-08-29T23:47:19.407Z,16.00
2022-08-29T23:49:46.283Z,16.00
2022-08-29T23:52:13.710Z,16.00
2022-08-29T23:54:40.740Z,16.00
2022-08-29T23:57:08.258Z,16.00
2022-08-29T23:59:53.901Z,16.00
